Time;durP1;ratioP1;P1;durP2;ratioP2;P2;SDS_P1;SDS_P2;PMS_P1;PMS_P2;Temp;Humidity;BMP_temperature;BMP_pressure;BME280_temperature;BME280_humidity;BME280_pressure;Samples;Min_cycle;Max_cycle;Signal;HPM_P1;HPM_P2
2020/12/20 00:02:04;;;;;;;12.02;1.30;;;18.20;80.80;;;;;;5008132;28;20431;-74
2020/12/20 00:04:31;;;;;;;3.47;1.10;;;18.00;80.90;;;;;;4989217;28;20091;-74
2020/12/20 00:06:57;;;;;;;7.38;1.00;;;17.90;81.00;;;;;;5008311;28;20129;-73
2020/12/20 00:09:24;;;;;;;6.47;1.35;;;17.80;81.60;;;;;;5008602;28;20766;-70
2020/12/20 00:11:56;;;;;;;4.55;1.08;;;17.70;81.80;;;;;;5009398;28;20026;-70
2020/12/20 00:14:34;;;;;;;6.05;1.58;;;17.60;82.00;;;;;;5008637;28;20507;-72
2020/12/20 00:17:03;;;;;;;8.82;2.03;;;17.50;82.30;;;;;;5009201;28;20092;-73
2020/12/20 00:19:30;;;;;;;5.90;1.63;;;17.50;83.00;;;;;;5009117;28;20059;-73
2020/12/20 00:22:10;;;;;;;6.70;1.60;;;17.40;82.20;;;;;;5009301;28;20277;-73
2020/12/20 00:24:37;;;;;;;9.80;1.83;;;17.30;81.90;;;;;;5008928;28;20037;-73
2020/12/20 00:27:06;;;;;;;7.75;1.98;;;17.20;81.70;;;;;;5009622;28;20102;-73
2020/12/20 00:29:34;;;;;;;5.03;1.43;;;17.00;82.60;;;;;;5007436;28;20025;-73
2020/12/20 00:32:01;;;;;;;14.73;2.10;;;16.90;83.60;;;;;;5009773;28;20120;-72
2020/12/20 00:34:28;;;;;;;7.13;1.75;;;16.80;84.60;;;;;;5007845;28;20030;-74
2020/12/20 00:36:55;;;;;;;24.10;3.38;;;16.60;85.90;;;;;;5009555;28;20117;-73
2020/12/20 00:39:22;;;;;;;14.07;3.05;;;16.50;86.90;;;;;;5008407;28;20026;-73
2020/12/20 00:41:54;;;;;;;13.68;2.22;;;16.30;88.70;;;;;;5008380;28;20033;-73
2020/12/20 00:44:22;;;;;;;24.33;3.75;;;16.20;89.20;;;;;;5008378;28;20034;-70
2020/12/20 00:46:49;;;;;;;13.05;1.98;;;16.20;90.20;;;;;;5008367;28;20103;-72
2020/12/20 00:49:16;;;;;;;6.63;1.45;;;16.10;90.80;;;;;;5009530;28;20388;-71
2020/12/20 00:51:43;;;;;;;6.88;1.67;;;16.00;91.30;;;;;;5008879;28;20084;-70
2020/12/20 00:54:09;;;;;;;9.25;1.95;;;15.90;91.60;;;;;;5009138;28;20411;-72
2020/12/20 00:56:36;;;;;;;6.68;2.10;;;15.90;91.80;;;;;;5008288;28;20105;-70
2020/12/20 00:59:03;;;;;;;10.38;2.20;;;15.90;92.00;;;;;;5008649;28;20033;-71
2020/12/20 01:01:29;;;;;;;11.35;2.15;;;15.80;92.30;;;;;;5009166;28;20050;-71
2020/12/20 01:03:56;;;;;;;8.10;1.77;;;15.80;92.50;;;;;;5005312;28;20037;-71
2020/12/20 01:06:24;;;;;;;6.63;2.05;;;15.80;92.40;;;;;;5008043;28;20044;-72
2020/12/20 01:08:53;;;;;;;13.15;1.92;;;15.70;92.50;;;;;;5007564;28;20102;-72
2020/12/20 01:11:20;;;;;;;10.35;1.60;;;15.70;91.10;;;;;;5008311;28;20687;-70
2020/12/20 01:13:51;;;;;;;18.10;2.40;;;15.70;91.20;;;;;;5008638;28;20037;-71
2020/12/20 01:16:19;;;;;;;5.63;1.60;;;15.70;90.70;;;;;;5008824;28;20025;-71
2020/12/20 01:18:46;;;;;;;6.90;1.80;;;15.60;91.10;;;;;;5007712;28;20030;-70
2020/12/20 01:21:17;;;;;;;7.55;1.48;;;15.60;86.90;;;;;;5008242;28;20022;-71
2020/12/20 01:23:44;;;;;;;6.97;1.60;;;15.60;89.40;;;;;;5008269;28;20096;-71
2020/12/20 01:26:11;;;;;;;3.90;1.30;;;15.60;88.30;;;;;;5008236;28;20082;-71
2020/12/20 01:28:38;;;;;;;12.07;1.83;;;15.40;89.20;;;;;;5007689;28;20029;-71
2020/12/20 01:31:06;;;;;;;7.60;1.45;;;15.50;87.10;;;;;;5009112;28;20069;-71
2020/12/20 01:33:35;;;;;;;7.72;2.65;;;15.30;88.90;;;;;;5007767;28;20103;-71
2020/12/20 01:36:08;;;;;;;8.38;1.67;;;15.00;90.00;;;;;;5007361;28;20025;-73
2020/12/20 01:38:35;;;;;;;6.60;1.80;;;14.90;90.40;;;;;;5007725;28;20125;-72
2020/12/20 01:41:03;;;;;;;4.90;1.60;;;15.00;88.60;;;;;;5481234;23;20165;-71
2020/12/20 01:43:48;;;;;;;11.48;1.35;;;14.90;90.10;;;;;;4988816;28;20088;-74
2020/12/20 01:46:18;;;;;;;5.50;1.73;;;14.80;90.50;;;;;;4988199;28;20139;-73
2020/12/20 01:48:46;;;;;;;12.43;5.10;;;15.10;87.30;;;;;;4994388;28;20068;-72
2020/12/20 01:51:13;;;;;;;8.15;3.25;;;15.20;86.90;;;;;;4991544;28;20400;-72
2020/12/20 01:53:41;;;;;;;7.03;2.00;;;15.30;85.30;;;;;;4995465;28;20041;-71
2020/12/20 01:56:08;;;;;;;9.90;2.15;;;15.30;85.10;;;;;;4994200;28;20172;-72
2020/12/20 01:58:38;;;;;;;11.35;2.00;;;15.30;84.60;;;;;;4995265;28;20026;-72
2020/12/20 02:01:08;;;;;;;7.18;1.85;;;15.30;84.50;;;;;;4993845;28;20481;-73
2020/12/20 02:03:38;;;;;;;8.45;1.70;;;15.30;84.40;;;;;;4995996;28;20022;-73
2020/12/20 02:06:05;;;;;;;6.65;1.40;;;15.20;84.90;;;;;;4992356;28;20026;-74
2020/12/20 02:08:33;;;;;;;3.65;1.33;;;15.20;84.50;;;;;;4987935;28;20037;-74
2020/12/20 02:11:07;;;;;;;10.35;1.73;;;15.10;85.10;;;;;;4991012;28;20026;-73
2020/12/20 02:13:34;;;;;;;7.93;1.70;;;15.10;85.20;;;;;;4986597;28;20034;-72
2020/12/20 02:16:01;;;;;;;4.55;1.60;;;14.90;85.70;;;;;;4992533;28;20084;-73
2020/12/20 02:18:28;;;;;;;5.03;1.40;;;14.70;86.70;;;;;;4964058;28;21256;-73
2020/12/20 02:20:54;;;;;;;6.95;1.30;;;14.90;85.50;;;;;;4988848;28;20473;-72
2020/12/20 02:23:21;;;;;;;4.65;1.67;;;15.00;83.50;;;;;;4990543;28;20117;-73
2020/12/20 02:25:51;;;;;;;6.38;3.08;;;14.90;83.60;;;;;;4987729;28;20041;-74
2020/12/20 02:28:19;;;;;;;13.70;5.18;;;14.90;83.70;;;;;;4991528;28;20026;-74
2020/12/20 02:30:46;;;;;;;6.68;2.78;;;14.80;85.00;;;;;;4985569;28;20700;-74
2020/12/20 02:33:13;;;;;;;61.90;42.28;;;14.80;84.00;;;;;;4962805;28;20121;-74
2020/12/20 02:35:44;;;;;;;64.43;40.17;;;14.60;86.50;;;;;;4991230;28;20086;-74
2020/12/20 02:38:11;;;;;;;36.28;19.00;;;14.40;89.00;;;;;;4992996;28;20038;-73
2020/12/20 02:40:40;;;;;;;21.25;9.80;;;14.10;90.00;;;;;;4983925;28;20042;-75
2020/12/20 02:43:07;;;;;;;10.80;6.13;;;14.10;89.20;;;;;;4979973;28;20432;-73
2020/12/20 02:45:34;;;;;;;9.88;3.08;;;13.90;90.10;;;;;;4971884;28;20051;-73
2020/12/20 02:48:01;;;;;;;12.43;2.80;;;13.90;89.60;;;;;;4979394;28;20073;-75
2020/12/20 02:50:27;;;;;;;7.07;2.30;;;13.80;88.60;;;;;;4980141;28;20023;-76
2020/12/20 02:52:54;;;;;;;5.90;2.72;;;13.80;88.80;;;;;;4978265;28;20038;-76
2020/12/20 02:55:21;;;;;;;7.07;2.67;;;13.90;86.10;;;;;;4979091;28;20030;-74
2020/12/20 02:57:47;;;;;;;17.95;3.17;;;14.00;85.80;;;;;;4979386;28;20393;-73
2020/12/20 03:00:14;;;;;;;13.30;2.97;;;14.00;88.30;;;;;;4965810;28;20142;-74
2020/12/20 03:02:40;;;;;;;9.98;2.75;;;13.90;88.60;;;;;;4979906;28;20416;-74
2020/12/20 03:05:07;;;;;;;10.32;2.75;;;13.90;87.10;;;;;;4961313;28;20317;-74
2020/12/20 03:07:34;;;;;;;9.43;2.25;;;13.80;90.00;;;;;;4979481;28;20030;-75
2020/12/20 03:10:00;;;;;;;9.07;2.47;;;13.60;86.70;;;;;;4978990;28;20037;-74
2020/12/20 03:12:27;;;;;;;9.80;2.13;;;13.60;90.00;;;;;;4979624;28;20401;-75
2020/12/20 03:14:53;;;;;;;6.72;2.08;;;13.40;90.00;;;;;;4965666;28;20043;-75
2020/12/20 03:17:20;;;;;;;9.27;1.58;;;13.30;90.50;;;;;;4979358;28;20038;-75
2020/12/20 03:19:48;;;;;;;6.68;1.73;;;13.20;90.40;;;;;;4978743;28;20049;-76
2020/12/20 03:22:15;;;;;;;3.60;1.63;;;13.10;90.20;;;;;;4978914;28;20022;-76
2020/12/20 03:24:42;;;;;;;3.40;2.03;;;12.90;91.10;;;;;;4977839;28;20031;-74
2020/12/20 03:27:09;;;;;;;10.23;2.83;;;12.70;91.80;;;;;;4978643;28;20034;-76
2020/12/20 03:29:36;;;;;;;4.57;2.08;;;12.50;92.10;;;;;;4979078;28;20089;-75
2020/12/20 03:32:02;;;;;;;7.57;2.72;;;12.40;92.10;;;;;;4982676;28;20432;-75
2020/12/20 03:34:29;;;;;;;9.32;2.22;;;12.30;92.00;;;;;;4981694;28;20034;-75
2020/12/20 03:36:56;;;;;;;6.57;2.42;;;12.30;92.40;;;;;;4982428;28;20034;-75
2020/12/20 03:39:22;;;;;;;9.50;2.53;;;12.20;92.70;;;;;;4981950;28;20069;-74
2020/12/20 03:41:49;;;;;;;2.85;1.60;;;12.10;93.30;;;;;;4982273;28;20149;-76
2020/12/20 03:44:15;;;;;;;6.10;1.80;;;12.10;93.20;;;;;;4982618;28;20495;-76
2020/12/20 03:46:42;;;;;;;3.05;1.83;;;12.10;92.60;;;;;;4980812;28;20031;-73
2020/12/20 03:49:09;;;;;;;5.45;1.92;;;12.10;92.50;;;;;;4981498;28;20118;-73
2020/12/20 03:51:35;;;;;;;12.35;2.03;;;12.00;92.40;;;;;;4971109;28;20027;-74
2020/12/20 03:54:03;;;;;;;10.82;1.85;;;12.00;92.30;;;;;;4982553;28;20396;-74
2020/12/20 03:56:30;;;;;;;8.10;1.95;;;12.00;92.80;;;;;;4978390;28;20117;-70
2020/12/20 03:58:57;;;;;;;3.88;1.95;;;11.90;92.60;;;;;;4979465;28;20042;-73
2020/12/20 04:01:24;;;;;;;7.15;2.45;;;11.90;92.80;;;;;;4980450;28;20034;-70
2020/12/20 04:03:51;;;;;;;3.45;2.22;;;11.90;92.90;;;;;;4982587;28;20030;-69
2020/12/20 04:06:17;;;;;;;3.58;2.20;;;11.80;93.30;;;;;;4980055;28;20022;-70
2020/12/20 04:08:44;;;;;;;4.63;2.55;;;11.80;93.30;;;;;;4980838;28;20035;-70
2020/12/20 04:11:14;;;;;;;5.93;2.72;;;11.70;93.40;;;;;;4982633;28;20080;-71
2020/12/20 04:13:40;;;;;;;6.63;3.47;;;11.70;93.10;;;;;;4981469;28;20065;-70
2020/12/20 04:16:09;;;;;;;10.23;2.22;;;11.70;92.70;;;;;;4980177;28;20384;-71
2020/12/20 04:18:36;;;;;;;4.38;2.10;;;11.70;93.10;;;;;;4982044;28;20045;-71
2020/12/20 04:21:03;;;;;;;41.72;26.13;;;11.60;93.50;;;;;;4980828;28;20360;-74
2020/12/20 04:23:30;;;;;;;14.05;6.28;;;11.60;93.80;;;;;;4981425;28;20114;-71
2020/12/20 04:25:57;;;;;;;14.23;5.82;;;11.50;93.80;;;;;;4982442;28;20113;-73
2020/12/20 04:30:59;;;;;;;5.82;2.60;;;11.40;93.70;;;;;;5146899;23;20065;-68
2020/12/20 04:33:26;;;;;;;5.35;1.80;;;11.30;94.20;;;;;;4981018;28;20034;-70
2020/12/20 04:35:53;;;;;;;9.43;2.03;;;11.20;94.30;;;;;;4979825;28;20140;-70
2020/12/20 04:38:19;;;;;;;8.40;1.48;;;11.10;94.10;;;;;;4978537;28;20083;-69
2020/12/20 04:40:46;;;;;;;8.25;2.15;;;11.10;95.00;;;;;;4976981;28;20085;-70
2020/12/20 04:43:13;;;;;;;6.03;1.65;;;11.10;94.90;;;;;;4979765;28;20472;-71
2020/12/20 04:45:43;;;;;;;12.38;2.67;;;11.00;94.80;;;;;;4979314;28;20474;-69
2020/12/20 04:48:12;;;;;;;5.28;2.67;;;11.00;94.50;;;;;;4978694;28;20105;-70
2020/12/20 04:50:41;;;;;;;5.57;2.65;;;11.00;94.40;;;;;;4979684;28;20019;-72
2020/12/20 04:53:09;;;;;;;5.70;2.60;;;10.90;95.20;;;;;;4978350;28;20120;-72
2020/12/20 04:55:38;;;;;;;9.43;3.35;;;10.90;94.90;;;;;;4979520;28;20061;-72
2020/12/20 04:58:04;;;;;;;;;;;11.00;94.90;;;;;;4981357;28;20125;-71
2020/12/20 05:00:31;;;;;;;7.50;4.13;;;11.10;93.80;;;;;;4979932;28;20004;-70
2020/12/20 05:02:58;;;;;;;10.85;3.55;;;11.20;93.20;;;;;;4978740;28;20034;-70
2020/12/20 05:05:27;;;;;;;14.93;8.73;;;11.10;94.30;;;;;;4979217;28;20049;-71
2020/12/20 05:07:56;;;;;;;18.63;13.95;;;11.00;94.40;;;;;;4978086;28;20105;-72
2020/12/20 05:10:38;;;;;;;23.00;13.83;;;11.00;94.00;;;;;;4979479;28;20057;-68
2020/12/20 05:13:06;;;;;;;12.70;5.57;;;10.80;95.40;;;;;;4981391;28;20058;-69
2020/12/20 05:15:33;;;;;;;6.68;5.03;;;10.60;96.20;;;;;;4979202;28;20104;-70
2020/12/20 05:18:11;;;;;;;6.65;3.35;;;10.60;95.40;;;;;;4978387;28;20034;-69
2020/12/20 05:20:40;;;;;;;9.43;3.22;;;10.60;95.50;;;;;;4980101;28;20034;-69
2020/12/20 05:23:08;;;;;;;12.05;3.35;;;10.70;95.00;;;;;;4980327;28;20030;-69
2020/12/20 05:25:37;;;;;;;7.05;4.72;;;10.60;94.60;;;;;;4979399;28;20491;-70
2020/12/20 05:28:08;;;;;;;7.00;3.63;;;10.70;94.30;;;;;;4979617;28;20285;-70
2020/12/20 05:30:35;;;;;;;9.63;4.95;;;10.60;94.30;;;;;;4979136;28;20297;-69
2020/12/20 05:33:03;;;;;;;9.13;3.15;;;10.60;95.00;;;;;;4979897;28;20046;-70
2020/12/20 05:35:29;;;;;;;5.68;3.05;;;10.40;95.40;;;;;;4980028;28;20053;-70
2020/12/20 05:37:56;;;;;;;4.53;2.20;;;10.30;95.60;;;;;;4962368;28;20031;-70
2020/12/20 05:40:34;;;;;;;8.07;2.65;;;10.30;94.40;;;;;;4980080;28;20049;-70
2020/12/20 05:43:11;;;;;;;8.00;2.53;;;10.50;94.10;;;;;;4980593;28;20048;-70
2020/12/20 05:45:38;;;;;;;6.68;3.05;;;10.50;93.70;;;;;;4979971;28;20080;-69
2020/12/20 05:48:18;;;;;;;5.82;3.20;;;10.40;94.20;;;;;;4980080;28;20092;-69
2020/12/20 05:51:00;;;;;;;6.82;3.50;;;10.50;93.10;;;;;;4980071;28;20030;-71
2020/12/20 05:53:29;;;;;;;9.55;3.33;;;10.60;92.50;;;;;;4979632;28;20302;-68
2020/12/20 05:56:00;;;;;;;12.02;3.72;;;10.60;92.30;;;;;;4977907;28;20037;-70
2020/12/20 05:58:34;;;;;;;6.47;3.00;;;10.60;91.90;;;;;;4981374;28;20043;-70
2020/12/20 06:01:02;;;;;;;5.68;3.83;;;10.50;92.70;;;;;;4979650;28;20100;-69
2020/12/20 06:03:29;;;;;;;9.98;4.05;;;10.40;92.80;;;;;;4979167;28;20053;-70
2020/12/20 06:05:59;;;;;;;10.30;4.55;;;10.40;92.40;;;;;;4979006;28;20035;-69
2020/12/20 06:08:29;;;;;;;11.88;4.63;;;10.40;92.00;;;;;;4979192;28;20034;-69
2020/12/20 06:10:56;;;;;;;9.13;4.25;;;10.40;91.70;;;;;;4979343;28;20073;-69
2020/12/20 06:13:24;;;;;;;11.18;4.50;;;10.40;92.00;;;;;;4980079;28;20033;-69
2020/12/20 06:15:55;;;;;;;5.22;3.55;;;10.50;91.60;;;;;;4980836;28;20030;-68
2020/12/20 06:18:31;;;;;;;7.03;3.90;;;10.40;91.90;;;;;;4978863;28;20018;-70
2020/12/20 06:21:04;;;;;;;7.05;4.18;;;10.40;92.20;;;;;;4978818;28;20282;-68
2020/12/20 06:23:34;;;;;;;8.30;4.15;;;10.20;92.30;;;;;;4978850;28;20030;-68
2020/12/20 06:26:04;;;;;;;8.60;4.35;;;10.10;93.30;;;;;;4978256;28;20030;-68
2020/12/20 06:28:33;;;;;;;6.65;3.88;;;9.80;93.40;;;;;;4979551;28;20057;-68
2020/12/20 06:31:00;;;;;;;7.45;4.50;;;10.00;93.00;;;;;;4980236;28;20129;-68
2020/12/20 06:33:52;;;;;;;9.70;4.65;;;9.90;93.40;;;;;;4978460;28;20365;-69
2020/12/20 06:36:21;;;;;;;9.45;3.75;;;9.70;94.60;;;;;;4977722;28;20065;-69
2020/12/20 06:38:56;;;;;;;8.50;4.68;;;9.60;94.60;;;;;;4978780;28;20033;-69
2020/12/20 06:41:37;;;;;;;7.85;3.80;;;9.70;93.80;;;;;;4977050;28;20053;-68
2020/12/20 06:44:14;;;;;;;8.93;4.45;;;9.80;93.70;;;;;;4979937;28;20105;-68
2020/12/20 06:46:41;;;;;;;6.50;4.22;;;9.80;93.90;;;;;;4979468;28;20030;-68
2020/12/20 06:49:42;;;;;;;9.13;3.53;;;9.80;93.70;;;;;;4977536;28;20034;-68
2020/12/20 06:52:30;;;;;;;6.18;3.40;;;9.90;93.10;;;;;;4977836;28;20096;-69
2020/12/20 06:55:13;;;;;;;4.68;2.50;;;10.00;92.60;;;;;;4978713;28;20129;-69
2020/12/20 06:58:04;;;;;;;6.28;2.60;;;10.00;91.60;;;;;;4979040;28;20074;-68
2020/12/20 07:00:54;;;;;;;5.78;2.05;;;10.10;91.20;;;;;;4980341;28;20057;-68
2020/12/20 07:03:24;;;;;;;19.73;2.65;;;10.20;90.60;;;;;;4979325;28;20110;-69
2020/12/20 07:05:55;;;;;;;4.22;2.05;;;10.20;88.10;;;;;;4981598;28;20065;-68
2020/12/20 07:08:27;;;;;;;7.72;3.03;;;10.30;90.00;;;;;;4984185;28;20124;-69
2020/12/20 07:11:01;;;;;;;3.33;2.25;;;10.30;89.70;;;;;;4983517;28;20925;-69
2020/12/20 07:13:44;;;;;;;4.45;2.35;;;10.20;89.90;;;;;;4983475;28;20400;-69
2020/12/20 07:16:22;;;;;;;4.28;2.55;;;10.20;90.50;;;;;;4984335;28;20085;-68
2020/12/20 07:18:58;;;;;;;6.75;2.45;;;10.20;89.80;;;;;;4983186;28;20031;-68
2020/12/20 07:21:28;;;;;;;4.80;2.10;;;10.00;91.60;;;;;;4981095;28;20093;-68
2020/12/20 07:24:20;;;;;;;3.40;1.45;;;9.90;91.00;;;;;;4982332;28;20031;-68
2020/12/20 07:26:53;;;;;;;3.58;1.88;;;10.00;89.90;;;;;;4982450;28;20495;-69
2020/12/20 07:29:20;;;;;;;3.55;1.70;;;10.10;90.80;;;;;;4982582;28;20034;-69
2020/12/20 07:31:52;;;;;;;5.40;2.33;;;10.10;89.00;;;;;;4983433;28;20251;-68
2020/12/20 07:34:19;;;;;;;4.43;2.22;;;10.00;90.80;;;;;;4983654;28;20038;-68
2020/12/20 07:36:46;;;;;;;6.18;2.30;;;9.90;90.90;;;;;;4982196;28;20034;-68
2020/12/20 07:39:13;;;;;;;6.75;2.58;;;10.00;90.20;;;;;;4982793;28;20034;-69
2020/12/20 07:41:40;;;;;;;4.95;2.13;;;10.10;89.80;;;;;;4980478;28;20030;-68
2020/12/20 07:44:11;;;;;;;4.18;2.42;;;10.10;90.10;;;;;;4984055;28;20057;-68
2020/12/20 07:46:38;;;;;;;5.00;2.58;;;9.90;90.70;;;;;;4981924;28;20109;-67
2020/12/20 07:49:09;;;;;;;11.18;4.40;;;9.80;91.30;;;;;;4983343;28;20042;-70
2020/12/20 07:51:36;;;;;;;8.70;3.45;;;9.70;91.90;;;;;;4982723;28;20088;-68
2020/12/20 07:54:12;;;;;;;9.93;2.25;;;9.60;91.20;;;;;;4982364;28;20348;-68
2020/12/20 07:56:46;;;;;;;5.18;2.95;;;9.60;91.50;;;;;;4981973;28;20109;-68
2020/12/20 07:59:17;;;;;;;4.15;2.15;;;9.60;91.50;;;;;;4981946;28;20470;-67
2020/12/20 08:01:46;;;;;;;3.85;2.30;;;9.50;91.80;;;;;;4983545;28;20661;-67
2020/12/20 08:04:13;;;;;;;8.85;2.78;;;9.40;92.60;;;;;;4982310;28;20320;-67
2020/12/20 08:06:44;;;;;;;3.47;2.42;;;9.40;92.70;;;;;;4982163;28;20034;-68
2020/12/20 08:09:14;;;;;;;5.80;2.20;;;9.40;92.50;;;;;;4981288;28;21792;-67
2020/12/20 08:11:42;;;;;;;2.67;2.40;;;9.30;92.70;;;;;;4981620;28;20030;-68
2020/12/20 08:14:14;;;;;;;4.15;2.45;;;9.20;92.20;;;;;;4982275;28;20121;-67
2020/12/20 08:16:42;;;;;;;15.32;2.63;;;9.30;91.90;;;;;;4981334;28;20045;-67
2020/12/20 08:19:17;;;;;;;5.57;2.20;;;9.30;91.90;;;;;;4982095;28;20084;-67
2020/12/20 08:22:11;;;;;;;5.82;2.25;;;9.20;91.50;;;;;;4982568;28;20042;-66
2020/12/20 08:24:45;;;;;;;4.93;2.40;;;9.10;92.20;;;;;;4980833;28;20432;-67
2020/12/20 08:27:14;;;;;;;7.40;2.15;;;8.90;91.70;;;;;;4980709;28;20026;-67
2020/12/20 08:29:41;;;;;;;5.88;2.17;;;9.00;91.80;;;;;;4982091;28;20066;-67
2020/12/20 08:32:22;;;;;;;4.18;2.33;;;9.00;92.20;;;;;;4981714;28;20058;-66
2020/12/20 08:34:49;;;;;;;6.72;2.15;;;8.90;92.50;;;;;;4981021;28;20030;-67
2020/12/20 08:37:21;;;;;;;9.77;2.05;;;8.80;93.30;;;;;;4982335;28;20041;-67
2020/12/20 08:39:49;;;;;;;3.42;1.90;;;8.70;93.90;;;;;;4979551;28;20027;-67
2020/12/20 08:42:18;;;;;;;5.78;2.08;;;8.70;93.60;;;;;;4982138;28;20026;-66
2020/12/20 08:44:47;;;;;;;7.75;2.63;;;8.60;93.00;;;;;;4981935;28;20088;-66
2020/12/20 08:47:18;;;;;;;6.00;2.70;;;8.60;93.50;;;;;;4981885;28;20034;-66
2020/12/20 08:49:55;;;;;;;6.30;2.45;;;8.60;92.80;;;;;;4981519;28;20038;-66
2020/12/20 08:52:22;;;;;;;5.03;2.38;;;8.60;92.80;;;;;;4981195;28;20096;-67
2020/12/20 08:54:50;;;;;;;5.93;2.47;;;8.70;92.30;;;;;;4981432;28;20030;-67
2020/12/20 08:57:17;;;;;;;2.80;1.90;;;8.70;93.00;;;;;;4980725;28;20038;-67
2020/12/20 08:59:46;;;;;;;4.50;2.05;;;8.50;93.60;;;;;;4981402;28;20026;-67
2020/12/20 09:02:25;;;;;;;5.68;2.20;;;8.50;93.40;;;;;;4981887;28;20034;-67
2020/12/20 09:05:31;;;;;;;3.25;2.17;;;8.50;93.40;;;;;;4981331;28;20041;-66
2020/12/20 09:07:58;;;;;;;7.68;3.13;;;8.50;93.40;;;;;;4914450;29;20046;-67
2020/12/20 09:10:30;;;;;;;12.38;2.80;;;8.40;94.00;;;;;;4970933;28;20038;-67
2020/12/20 09:12:59;;;;;;;5.57;2.72;;;8.20;94.40;;;;;;4981683;28;20106;-67
2020/12/20 09:15:29;;;;;;;4.55;2.65;;;8.20;94.60;;;;;;4981143;28;20419;-66
2020/12/20 09:17:57;;;;;;;8.65;2.50;;;8.20;94.00;;;;;;4981383;28;20035;-66
2020/12/20 09:20:27;;;;;;;7.75;2.58;;;8.20;93.80;;;;;;4981686;28;20496;-66
2020/12/20 09:22:57;;;;;;;5.28;2.40;;;8.10;94.80;;;;;;4981726;28;20042;-67
2020/12/20 09:25:38;;;;;;;5.75;2.10;;;8.10;95.10;;;;;;4982565;28;20064;-68
2020/12/20 09:28:07;;;;;;;5.05;2.47;;;8.10;95.30;;;;;;4980660;28;20356;-68
2020/12/20 09:30:49;;;;;;;7.65;2.47;;;8.00;95.60;;;;;;4980691;28;20046;-69
2020/12/20 09:33:15;;;;;;;6.32;2.60;;;8.00;95.20;;;;;;4981433;28;20306;-68
2020/12/20 09:36:11;;;;;;;6.35;2.60;;;8.00;94.60;;;;;;4984527;28;20042;-68
2020/12/20 09:38:49;;;;;;;7.63;2.33;;;8.10;94.40;;;;;;4984228;28;20048;-68
2020/12/20 09:41:17;;;;;;;3.43;2.00;;;7.90;95.30;;;;;;4985342;28;20626;-68
2020/12/20 09:43:45;;;;;;;6.70;3.33;;;7.90;95.30;;;;;;4984418;28;20117;-68
2020/12/20 09:46:20;;;;;;;4.88;1.83;;;7.90;94.90;;;;;;4984108;28;20133;-68
2020/12/20 09:48:48;;;;;;;2.65;1.92;;;8.00;94.70;;;;;;4981723;28;20057;-66
2020/12/20 09:51:14;;;;;;;3.47;2.03;;;7.90;95.20;;;;;;4984040;28;20027;-68
2020/12/20 09:53:41;;;;;;;2.53;2.00;;;7.90;95.10;;;;;;4985982;28;20026;-68
2020/12/20 09:56:08;;;;;;;3.75;1.90;;;7.90;94.50;;;;;;4985397;28;20105;-68
2020/12/20 09:58:36;;;;;;;7.35;2.33;;;7.80;95.00;;;;;;4982154;28;20029;-68
2020/12/20 10:01:03;;;;;;;7.70;2.13;;;7.70;94.90;;;;;;4983387;28;20027;-66
2020/12/20 10:03:30;;;;;;;5.90;2.58;;;7.70;95.40;;;;;;4979631;28;20086;-68
2020/12/20 10:06:00;;;;;;;9.57;2.92;;;7.80;94.60;;;;;;4981173;28;20026;-67
2020/12/20 10:08:27;;;;;;;8.00;2.13;;;7.80;94.80;;;;;;4981188;28;20030;-67
2020/12/20 10:10:55;;;;;;;5.05;2.47;;;7.90;94.00;;;;;;4979616;28;20034;-68
2020/12/20 10:13:22;;;;;;;26.35;3.38;;;8.00;92.70;;;;;;4979449;28;20031;-67
2020/12/20 10:15:49;;;;;;;5.68;2.20;;;8.00;93.20;;;;;;4979434;28;20041;-67
2020/12/20 10:18:16;;;;;;;2.72;1.60;;;7.90;94.10;;;;;;4979938;28;20023;-67
2020/12/20 10:20:42;;;;;;;4.50;2.10;;;7.90;94.70;;;;;;4979372;28;20086;-67
2020/12/20 10:23:09;;;;;;;8.27;1.98;;;7.90;93.90;;;;;;4980699;28;20122;-67
2020/12/20 10:25:36;;;;;;;17.52;3.33;;;7.80;95.00;;;;;;4981378;28;20097;-68
2020/12/20 10:28:02;;;;;;;5.25;1.92;;;7.80;95.40;;;;;;4979561;28;20030;-67
2020/12/20 10:30:29;;;;;;;10.38;2.05;;;7.90;94.20;;;;;;4979489;28;20054;-68
2020/12/20 10:32:56;;;;;;;5.57;2.38;;;7.90;93.80;;;;;;4978982;28;20036;-69
2020/12/20 10:35:27;;;;;;;5.43;2.50;;;8.00;93.30;;;;;;4981310;28;20313;-68
2020/12/20 10:38:02;;;;;;;9.32;2.20;;;8.00;93.30;;;;;;4978237;28;20096;-67
2020/12/20 10:40:29;;;;;;;8.27;2.28;;;7.60;94.90;;;;;;4978775;28;20031;-68
2020/12/20 10:42:56;;;;;;;5.22;1.88;;;7.40;95.90;;;;;;4981868;28;20035;-67
2020/12/20 10:45:23;;;;;;;6.03;2.20;;;7.30;96.30;;;;;;4979471;28;20706;-68
2020/12/20 10:47:49;;;;;;;5.07;2.05;;;7.30;96.50;;;;;;4978958;28;20078;-68
2020/12/20 10:50:18;;;;;;;2.92;1.50;;;7.40;95.30;;;;;;4979966;28;20044;-68
2020/12/20 10:52:45;;;;;;;9.43;2.30;;;7.40;94.70;;;;;;4979686;28;20134;-67
2020/12/20 10:55:11;;;;;;;4.63;1.55;;;7.20;95.80;;;;;;4979063;28;20151;-67
2020/12/20 10:57:38;;;;;;;3.33;1.80;;;7.10;95.90;;;;;;4980122;28;20129;-68
2020/12/20 11:00:05;;;;;;;10.48;2.03;;;7.10;95.70;;;;;;4980260;28;20743;-68
2020/12/20 11:02:33;;;;;;;8.82;2.53;;;7.10;95.80;;;;;;4979229;28;20154;-68
2020/12/20 11:05:00;;;;;;;6.82;2.10;;;7.00;96.30;;;;;;4979312;28;20138;-68
2020/12/20 11:07:27;;;;;;;3.20;1.70;;;7.10;95.70;;;;;;4979803;28;20092;-68
2020/12/20 11:09:53;;;;;;;7.70;1.60;;;7.20;94.20;;;;;;4980198;28;20034;-68
2020/12/20 11:12:20;;;;;;;3.67;1.70;;;7.30;94.70;;;;;;4978418;28;20833;-68
2020/12/20 11:14:46;;;;;;;8.45;1.58;;;7.30;95.00;;;;;;4980429;28;20122;-67
2020/12/20 11:17:13;;;;;;;3.45;1.58;;;7.20;95.40;;;;;;4980032;28;20034;-67
2020/12/20 11:19:39;;;;;;;6.82;1.65;;;7.10;95.60;;;;;;4979151;28;20080;-67
2020/12/20 11:22:06;;;;;;;9.50;1.92;;;7.10;95.80;;;;;;4980638;28;20080;-68
2020/12/20 11:24:33;;;;;;;1.80;1.40;;;7.20;95.60;;;;;;4978909;28;20164;-68
2020/12/20 11:26:59;;;;;;;3.92;1.23;;;7.20;95.30;;;;;;4979748;28;20026;-68
2020/12/20 11:29:26;;;;;;;6.45;1.52;;;7.30;95.30;;;;;;4978916;28;20360;-68
2020/12/20 11:31:52;;;;;;;4.22;1.33;;;7.30;95.10;;;;;;4979086;28;20871;-68
2020/12/20 11:34:22;;;;;;;2.63;1.20;;;7.20;95.00;;;;;;4980078;28;20079;-68
2020/12/20 11:36:49;;;;;;;2.22;1.42;;;7.20;94.60;;;;;;4978007;28;20034;-68
2020/12/20 11:39:16;;;;;;;7.03;1.52;;;7.30;95.00;;;;;;4979441;28;20336;-68
2020/12/20 11:41:43;;;;;;;2.00;1.08;;;7.20;95.00;;;;;;4979333;28;20109;-69
2020/12/20 11:44:10;;;;;;;8.73;1.30;;;7.20;95.10;;;;;;4979804;28;20380;-69
2020/12/20 11:46:37;;;;;;;4.65;1.55;;;7.20;95.00;;;;;;4979144;28;20045;-68
2020/12/20 11:49:04;;;;;;;2.40;1.25;;;7.20;94.60;;;;;;4977181;28;20030;-68
2020/12/20 11:51:31;;;;;;;4.65;2.35;;;7.30;94.40;;;;;;4981515;28;20030;-68
2020/12/20 11:53:59;;;;;;;5.28;1.05;;;7.40;94.20;;;;;;4982564;28;20195;-68
2020/12/20 11:56:25;;;;;;;6.60;1.20;;;7.50;93.60;;;;;;4982202;28;20046;-68
2020/12/20 11:58:52;;;;;;;6.32;1.52;;;7.50;93.70;;;;;;4981844;28;20710;-68
2020/12/20 12:01:30;;;;;;;10.38;1.50;;;7.50;94.10;;;;;;4981993;28;20034;-69
2020/12/20 12:03:56;;;;;;;2.72;1.05;;;7.30;94.20;;;;;;4982286;28;20114;-67
2020/12/20 12:06:23;;;;;;;5.65;1.40;;;7.20;94.40;;;;;;4981856;28;20042;-68
2020/12/20 12:08:49;;;;;;;2.45;1.00;;;7.30;93.30;;;;;;4980731;28;20027;-67
2020/12/20 12:11:21;;;;;;;2.20;1.20;;;7.40;94.10;;;;;;4981777;28;20110;-67
2020/12/20 12:13:50;;;;;;;4.88;2.75;;;7.20;94.40;;;;;;4982661;28;20113;-68
2020/12/20 12:16:20;;;;;;;;;;;7.10;94.90;;;;;;4983615;28;20448;-67
2020/12/20 12:18:47;;;;;;;3.58;0.93;;;7.00;93.90;;;;;;4980731;28;20351;-68
2020/12/20 12:21:16;;;;;;;1.60;0.80;;;6.90;95.30;;;;;;4983083;28;20042;-68
2020/12/20 12:23:44;;;;;;;5.45;1.30;;;6.90;95.00;;;;;;4983998;28;20030;-68
2020/12/20 12:26:10;;;;;;;7.13;1.80;;;6.90;94.80;;;;;;4981968;28;20117;-68
2020/12/20 12:28:37;;;;;;;1.77;1.10;;;6.90;94.30;;;;;;4981762;28;20026;-67
2020/12/20 12:31:04;;;;;;;1.90;1.17;;;6.90;94.90;;;;;;4981865;28;20301;-68
2020/12/20 12:33:30;;;;;;;3.60;0.90;;;6.80;95.30;;;;;;4981356;28;20038;-67
2020/12/20 12:35:58;;;;;;;2.90;1.50;;;6.70;95.30;;;;;;4980900;28;20127;-67
2020/12/20 12:38:24;;;;;;;4.57;1.75;;;6.80;94.50;;;;;;4982192;28;20030;-67
2020/12/20 12:40:51;;;;;;;2.97;1.33;;;6.90;92.50;;;;;;4983063;28;20041;-67
2020/12/20 12:43:18;;;;;;;2.97;0.90;;;7.00;93.20;;;;;;4980818;28;20038;-67
2020/12/20 12:45:44;;;;;;;7.10;1.30;;;7.00;93.10;;;;;;4982275;28;20030;-67
2020/12/20 12:48:11;;;;;;;3.15;1.10;;;7.00;93.60;;;;;;4981847;28;20133;-67
2020/12/20 12:50:38;;;;;;;1.17;0.98;;;6.90;93.90;;;;;;4981867;28;20037;-67
2020/12/20 12:53:05;;;;;;;4.13;0.93;;;6.80;93.90;;;;;;4981705;28;20089;-68
2020/12/20 12:55:31;;;;;;;2.60;1.10;;;6.80;93.60;;;;;;4982281;28;20116;-68
2020/12/20 12:57:58;;;;;;;1.95;0.85;;;6.80;92.90;;;;;;4980707;28;20042;-67
2020/12/20 13:00:25;;;;;;;0.77;0.70;;;6.90;92.00;;;;;;4981221;28;20034;-68
2020/12/20 13:02:52;;;;;;;3.42;2.05;;;7.00;91.80;;;;;;4979164;28;20049;-68
2020/12/20 13:05:19;;;;;;;4.50;1.02;;;7.00;92.20;;;;;;4982015;28;20049;-68